Terminal Aerodrome Forecast
Issued by NWS Mt. Holly, NJ

Home | Current Version | Previous Version | Text Only | Print | Product List | Glossary On
Versions: 1 2 3 4 5 6 7 8 9 10 11 12 13 14 15 16 17 18 19 20 21 22
000
FTAK31 PANC 291731
TAFABE
TAF
PABE 291731Z 2918/3018 VRB03KT P6SM VCSH SCT005 OVC015
      TEMPO 2918/2921 6SM -SHRA BR BKN005 OVC015
     FM292100 VRB05KT 6SM -RA BR BKN015 OVC025
     FM300400 30005KT P6SM -SHRA SCT015 OVC025
     FM300900 VRB04KT 6SM -SHRA BR BKN025 OVC050=

USA.gov is the U.S. government's official web portal to all federal, state and local government web resources and services.